Charleston, Illinois
Current Conditions -  °F | °C
As of 3:53 AM on Tuesday 27 Jan 2015 (Local Time) from KMTO Reporting Station
Haze Haze  
Wind Chill: 31°   Ceiling: 700
Heat Index: 31°   Visibility: 4mi
Dew Point: 28°   Wind: 0mph
Humidity: 89%   Direction: NA
Pressure: 29.92"   Gusts: NA
Location:  39.5°N, 88.18°W
Report Text: KMTO 270953Z AUTO 00000KT 4SM BR OVC007 M01/M02 A2992 RMK AO2 SLP138 T10061022 $
Loading
Personal Weather Stations






























Interactive Weather Map New forecast layout! Learn more

10-Day Weather Forecast

Advertisements
Track Severe Weather on mobile